sensor_id;sensor_type;location;lat;lon;timestamp;pressure;altitude;pressure_sealevel;temperature;humidity
31044;BME280;17710;52.520;13.352;2023-10-19T00:00:03;100203.78;;;13.07;49.89
31044;BME280;17710;52.520;13.352;2023-10-19T00:02:45;100199.69;;;13.01;50.05
31044;BME280;17710;52.520;13.352;2023-10-19T00:05:12;100204.09;;;12.85;50.33
31044;BME280;17710;52.520;13.352;2023-10-19T00:07:41;100200.72;;;12.99;49.98
31044;BME280;17710;52.520;13.352;2023-10-19T00:10:07;100200.22;;;12.75;50.63
31044;BME280;17710;52.520;13.352;2023-10-19T00:12:35;100195.50;;;12.97;50.27
31044;BME280;17710;52.520;13.352;2023-10-19T00:15:01;100192.66;;;13.00;50.04
31044;BME280;17710;52.520;13.352;2023-10-19T00:17:29;100189.75;;;12.89;50.18
31044;BME280;17710;52.520;13.352;2023-10-19T00:19:58;100187.19;;;13.03;50.00
31044;BME280;17710;52.520;13.352;2023-10-19T00:22:34;100181.44;;;12.95;50.03
31044;BME280;17710;52.520;13.352;2023-10-19T00:25:03;100172.81;;;12.92;50.32
31044;BME280;17710;52.520;13.352;2023-10-19T00:27:29;100171.63;;;12.64;50.85
31044;BME280;17710;52.520;13.352;2023-10-19T00:29:56;100155.94;;;12.77;50.60
31044;BME280;17710;52.520;13.352;2023-10-19T00:32:31;100153.47;;;12.90;50.13
31044;BME280;17710;52.520;13.352;2023-10-19T00:34:56;100145.59;;;12.88;50.36
31044;BME280;17710;52.520;13.352;2023-10-19T00:37:29;100144.06;;;13.00;49.82
31044;BME280;17710;52.520;13.352;2023-10-19T00:39:57;100130.06;;;12.98;49.98
31044;BME280;17710;52.520;13.352;2023-10-19T00:42:41;100127.31;;;12.99;50.18
31044;BME280;17710;52.520;13.352;2023-10-19T00:45:11;100118.84;;;12.93;50.06
31044;BME280;17710;52.520;13.352;2023-10-19T00:47:38;100121.81;;;12.87;50.33
31044;BME280;17710;52.520;13.352;2023-10-19T00:50:06;100118.81;;;12.77;50.37
31044;BME280;17710;52.520;13.352;2023-10-19T00:52:39;100110.09;;;12.75;50.72
31044;BME280;17710;52.520;13.352;2023-10-19T00:55:09;100121.09;;;12.67;50.67
31044;BME280;17710;52.520;13.352;2023-10-19T00:57:40;100115.56;;;12.72;50.59
31044;BME280;17710;52.520;13.352;2023-10-19T01:00:08;100111.81;;;12.43;51.37
31044;BME280;17710;52.520;13.352;2023-10-19T01:02:37;100119.28;;;12.52;51.40
31044;BME280;17710;52.520;13.352;2023-10-19T01:05:09;100111.53;;;12.65;51.08
31044;BME280;17710;52.520;13.352;2023-10-19T01:07:39;100100.34;;;12.75;50.81
31044;BME280;17710;52.520;13.352;2023-10-19T01:10:07;100094.44;;;12.70;50.99
31044;BME280;17710;52.520;13.352;2023-10-19T01:12:34;100100.75;;;12.68;51.23
31044;BME280;17710;52.520;13.352;2023-10-19T01:15:07;100087.59;;;12.82;50.64
31044;BME280;17710;52.520;13.352;2023-10-19T01:17:38;100092.63;;;12.87;50.39
31044;BME280;17710;52.520;13.352;2023-10-19T01:20:09;100086.81;;;12.80;50.75
31044;BME280;17710;52.520;13.352;2023-10-19T01:22:51;100078.19;;;12.76;50.78
31044;BME280;17710;52.520;13.352;2023-10-19T01:25:19;100074.00;;;12.72;51.01
31044;BME280;17710;52.520;13.352;2023-10-19T01:27:58;100065.63;;;12.64;50.84
31044;BME280;17710;52.520;13.352;2023-10-19T01:30:32;100068.59;;;12.58;51.24
31044;BME280;17710;52.520;13.352;2023-10-19T01:32:58;100067.22;;;12.67;51.19
31044;BME280;17710;52.520;13.352;2023-10-19T01:35:25;100059.72;;;12.59;51.28
31044;BME280;17710;52.520;13.352;2023-10-19T01:37:53;100060.47;;;12.46;51.67
31044;BME280;17710;52.520;13.352;2023-10-19T01:40:19;100052.50;;;12.46;51.60
31044;BME280;17710;52.520;13.352;2023-10-19T01:42:46;100040.66;;;12.53;51.71
31044;BME280;17710;52.520;13.352;2023-10-19T01:45:11;100044.31;;;12.50;51.73
31044;BME280;17710;52.520;13.352;2023-10-19T01:47:40;100038.50;;;12.75;51.13
31044;BME280;17710;52.520;13.352;2023-10-19T01:50:08;100038.84;;;12.69;51.05
31044;BME280;17710;52.520;13.352;2023-10-19T01:52:45;100017.06;;;12.64;51.28
31044;BME280;17710;52.520;13.352;2023-10-19T01:55:13;100009.69;;;12.53;51.52
31044;BME280;17710;52.520;13.352;2023-10-19T01:57:45;100007.22;;;12.66;51.34
31044;BME280;17710;52.520;13.352;2023-10-19T02:00:13;100006.38;;;12.65;51.25
31044;BME280;17710;52.520;13.352;2023-10-19T02:02:42;100004.47;;;12.52;51.29
31044;BME280;17710;52.520;13.352;2023-10-19T02:05:09;100003.88;;;12.62;51.19
31044;BME280;17710;52.520;13.352;2023-10-19T02:07:40;100001.59;;;12.72;51.11
31044;BME280;17710;52.520;13.352;2023-10-19T02:10:06;99991.66;;;12.91;50.65
31044;BME280;17710;52.520;13.352;2023-10-19T02:12:37;99996.94;;;12.91;50.41
31044;BME280;17710;52.520;13.352;2023-10-19T02:15:07;99991.66;;;12.75;50.39
31044;BME280;17710;52.520;13.352;2023-10-19T02:17:34;99992.19;;;12.66;51.25
31044;BME280;17710;52.520;13.352;2023-10-19T02:19:59;99985.91;;;12.83;50.86
31044;BME280;17710;52.520;13.352;2023-10-19T02:22:26;99980.00;;;12.94;50.09
31044;BME280;17710;52.520;13.352;2023-10-19T02:24:53;99980.69;;;12.82;50.68
31044;BME280;17710;52.520;13.352;2023-10-19T02:27:18;99975.38;;;12.82;50.44
31044;BME280;17710;52.520;13.352;2023-10-19T02:29:47;99978.63;;;12.87;50.69
31044;BME280;17710;52.520;13.352;2023-10-19T02:32:12;99973.78;;;12.79;50.90
31044;BME280;17710;52.520;13.352;2023-10-19T02:34:39;99967.34;;;12.83;50.54
31044;BME280;17710;52.520;13.352;2023-10-19T02:37:06;99961.19;;;12.83;50.47
31044;BME280;17710;52.520;13.352;2023-10-19T02:39:33;99952.22;;;12.85;50.46
31044;BME280;17710;52.520;13.352;2023-10-19T02:41:59;99952.31;;;12.68;51.00
31044;BME280;17710;52.520;13.352;2023-10-19T02:44:27;99950.59;;;12.67;50.91
31044;BME280;17710;52.520;13.352;2023-10-19T02:46:56;99954.88;;;12.85;50.80
31044;BME280;17710;52.520;13.352;2023-10-19T02:49:25;99951.69;;;12.94;50.62
31044;BME280;17710;52.520;13.352;2023-10-19T02:51:53;99946.22;;;12.97;50.28
31044;BME280;17710;52.520;13.352;2023-10-19T02:54:22;99933.81;;;12.82;50.52
31044;BME280;17710;52.520;13.352;2023-10-19T02:56:50;99934.31;;;12.89;50.49
31044;BME280;17710;52.520;13.352;2023-10-19T02:59:19;99934.88;;;13.09;49.98
31044;BME280;17710;52.520;13.352;2023-10-19T03:01:48;99928.31;;;13.16;50.08
31044;BME280;17710;52.520;13.352;2023-10-19T03:04:16;99931.25;;;12.96;50.00
31044;BME280;17710;52.520;13.352;2023-10-19T03:06:42;99921.00;;;12.90;50.32
31044;BME280;17710;52.520;13.352;2023-10-19T03:09:09;99919.69;;;12.97;50.18
31044;BME280;17710;52.520;13.352;2023-10-19T03:11:38;99921.16;;;12.87;50.03
31044;BME280;17710;52.520;13.352;2023-10-19T03:14:05;99919.19;;;12.91;50.44
31044;BME280;17710;52.520;13.352;2023-10-19T03:16:31;99914.34;;;12.83;50.51
31044;BME280;17710;52.520;13.352;2023-10-19T03:18:57;99914.34;;;12.83;50.31
31044;BME280;17710;52.520;13.352;2023-10-19T03:21:24;99907.09;;;12.71;50.47
31044;BME280;17710;52.520;13.352;2023-10-19T03:23:53;99902.88;;;12.67;50.75
31044;BME280;17710;52.520;13.352;2023-10-19T03:26:18;99893.13;;;12.83;50.47
31044;BME280;17710;52.520;13.352;2023-10-19T03:28:56;99894.84;;;12.84;50.42
31044;BME280;17710;52.520;13.352;2023-10-19T03:31:21;99901.91;;;12.99;50.03
31044;BME280;17710;52.520;13.352;2023-10-19T03:33:50;99896.47;;;13.16;49.70
31044;BME280;17710;52.520;13.352;2023-10-19T03:36:20;99900.81;;;12.88;50.19
31044;BME280;17710;52.520;13.352;2023-10-19T03:38:48;99889.97;;;13.06;49.88
31044;BME280;17710;52.520;13.352;2023-10-19T03:41:16;99883.63;;;13.09;49.75
31044;BME280;17710;52.520;13.352;2023-10-19T03:43:47;99871.38;;;12.92;50.23
31044;BME280;17710;52.520;13.352;2023-10-19T03:46:14;99868.31;;;12.84;50.59
31044;BME280;17710;52.520;13.352;2023-10-19T03:48:47;99861.75;;;13.05;50.00
31044;BME280;17710;52.520;13.352;2023-10-19T03:51:14;99864.81;;;12.84;50.44
31044;BME280;17710;52.520;13.352;2023-10-19T03:53:43;99856.88;;;12.84;50.57
31044;BME280;17710;52.520;13.352;2023-10-19T03:56:15;99856.94;;;12.82;50.36
31044;BME280;17710;52.520;13.352;2023-10-19T03:58:43;99857.19;;;13.07;50.15
31044;BME280;17710;52.520;13.352;2023-10-19T04:01:12;99867.22;;;13.02;50.08
31044;BME280;17710;52.520;13.352;2023-10-19T04:03:41;99860.78;;;13.06;49.85
31044;BME280;17710;52.520;13.352;2023-10-19T04:06:08;99850.19;;;13.06;49.96
31044;BME280;17710;52.520;13.352;2023-10-19T04:08:39;99846.66;;;12.92;50.44
31044;BME280;17710;52.520;13.352;2023-10-19T04:11:05;99846.38;;;12.96;50.06
31044;BME280;17710;52.520;13.352;2023-10-19T04:13:38;99846.25;;;12.84;50.60
31044;BME280;17710;52.520;13.352;2023-10-19T04:16:04;99838.38;;;12.82;50.51
31044;BME280;17710;52.520;13.352;2023-10-19T04:18:34;99833.22;;;12.95;50.30
31044;BME280;17710;52.520;13.352;2023-10-19T04:21:03;99830.19;;;13.01;50.01
31044;BME280;17710;52.520;13.352;2023-10-19T04:23:29;99821.66;;;12.96;50.21
31044;BME280;17710;52.520;13.352;2023-10-19T04:26:00;99825.69;;;12.87;50.19
31044;BME280;17710;52.520;13.352;2023-10-19T04:28:30;99816.44;;;12.94;50.15
31044;BME280;17710;52.520;13.352;2023-10-19T04:30:58;99819.00;;;12.96;49.90
31044;BME280;17710;52.520;13.352;2023-10-19T04:33:28;99814.28;;;13.01;50.11
31044;BME280;17710;52.520;13.352;2023-10-19T04:35:55;99817.03;;;12.99;50.16
31044;BME280;17710;52.520;13.352;2023-10-19T04:38:25;99817.19;;;12.82;50.45
31044;BME280;17710;52.520;13.352;2023-10-19T04:40:51;99810.41;;;12.92;50.43
31044;BME280;17710;52.520;13.352;2023-10-19T04:43:17;99807.84;;;12.91;50.34
31044;BME280;17710;52.520;13.352;2023-10-19T04:45:44;99808.06;;;12.72;50.75
31044;BME280;17710;52.520;13.352;2023-10-19T04:48:12;99802.31;;;12.80;50.91
31044;BME280;17710;52.520;13.352;2023-10-19T04:50:38;99797.16;;;12.92;50.58
31044;BME280;17710;52.520;13.352;2023-10-19T04:53:05;99796.06;;;12.81;50.70
31044;BME280;17710;52.520;13.352;2023-10-19T04:55:31;99784.59;;;12.66;51.15
31044;BME280;17710;52.520;13.352;2023-10-19T04:57:57;99791.84;;;12.32;52.00
31044;BME280;17710;52.520;13.352;2023-10-19T05:00:24;99791.31;;;12.42;51.88
31044;BME280;17710;52.520;13.352;2023-10-19T05:02:53;99791.72;;;12.50;52.09
31044;BME280;17710;52.520;13.352;2023-10-19T05:05:21;99784.28;;;12.41;52.53
31044;BME280;17710;52.520;13.352;2023-10-19T05:07:48;99787.19;;;12.52;52.31
31044;BME280;17710;52.520;13.352;2023-10-19T05:10:14;99787.69;;;12.58;51.93
31044;BME280;17710;52.520;13.352;2023-10-19T05:12:40;99781.41;;;12.45;52.55
31044;BME280;17710;52.520;13.352;2023-10-19T05:15:07;99780.38;;;12.62;52.12
31044;BME280;17710;52.520;13.352;2023-10-19T05:17:34;99777.00;;;12.74;51.75
31044;BME280;17710;52.520;13.352;2023-10-19T05:20:00;99775.16;;;12.60;51.97
31044;BME280;17710;52.520;13.352;2023-10-19T05:22:30;99772.53;;;12.60;52.04
31044;BME280;17710;52.520;13.352;2023-10-19T05:24:57;99776.75;;;12.49;52.60
31044;BME280;17710;52.520;13.352;2023-10-19T05:27:24;99766.94;;;12.51;52.09
31044;BME280;17710;52.520;13.352;2023-10-19T05:29:50;99765.50;;;12.45;52.74
31044;BME280;17710;52.520;13.352;2023-10-19T05:32:17;99768.50;;;12.39;53.65
31044;BME280;17710;52.520;13.352;2023-10-19T05:34:44;99773.69;;;12.41;53.80
31044;BME280;17710;52.520;13.352;2023-10-19T05:37:11;99775.03;;;12.48;53.46
31044;BME280;17710;52.520;13.352;2023-10-19T05:39:39;99782.28;;;12.30;53.99
31044;BME280;17710;52.520;13.352;2023-10-19T05:42:05;99784.06;;;12.29;53.77
31044;BME280;17710;52.520;13.352;2023-10-19T05:44:32;99783.75;;;12.50;53.60
31044;BME280;17710;52.520;13.352;2023-10-19T05:46:58;99784.19;;;12.58;52.98
31044;BME280;17710;52.520;13.352;2023-10-19T05:49:25;99780.66;;;12.57;53.26
31044;BME280;17710;52.520;13.352;2023-10-19T05:51:51;99794.72;;;12.44;53.88
31044;BME280;17710;52.520;13.352;2023-10-19T05:54:18;99790.00;;;12.49;53.41
31044;BME280;17710;52.520;13.352;2023-10-19T05:56:45;99792.50;;;12.52;53.62
31044;BME280;17710;52.520;13.352;2023-10-19T05:59:12;99793.56;;;12.63;53.26
31044;BME280;17710;52.520;13.352;2023-10-19T06:01:40;99789.47;;;12.58;53.75
31044;BME280;17710;52.520;13.352;2023-10-19T06:04:06;99790.47;;;12.71;53.34
31044;BME280;17710;52.520;13.352;2023-10-19T06:06:33;99782.41;;;12.43;54.61
31044;BME280;17710;52.520;13.352;2023-10-19T06:08:59;99775.41;;;12.42;54.97
31044;BME280;17710;52.520;13.352;2023-10-19T06:11:28;99775.75;;;12.35;55.17
31044;BME280;17710;52.520;13.352;2023-10-19T06:13:59;99771.44;;;12.49;55.61
31044;BME280;17710;52.520;13.352;2023-10-19T06:16:26;99761.31;;;12.41;55.19
31044;BME280;17710;52.520;13.352;2023-10-19T06:18:53;99759.47;;;12.57;55.82
31044;BME280;17710;52.520;13.352;2023-10-19T06:21:19;99759.19;;;12.62;55.87
31044;BME280;17710;52.520;13.352;2023-10-19T06:23:46;99743.03;;;12.66;55.77
31044;BME280;17710;52.520;13.352;2023-10-19T06:26:12;99743.41;;;12.74;56.48
31044;BME280;17710;52.520;13.352;2023-10-19T06:28:40;99750.81;;;12.40;56.99
31044;BME280;17710;52.520;13.352;2023-10-19T06:31:08;99747.13;;;12.42;57.76
31044;BME280;17710;52.520;13.352;2023-10-19T06:33:34;99747.25;;;12.55;57.64
31044;BME280;17710;52.520;13.352;2023-10-19T06:36:01;99744.91;;;12.34;57.56
31044;BME280;17710;52.520;13.352;2023-10-19T06:38:28;99735.66;;;12.42;57.52
31044;BME280;17710;52.520;13.352;2023-10-19T06:40:56;99724.69;;;12.33;57.71
31044;BME280;17710;52.520;13.352;2023-10-19T06:43:24;99716.81;;;12.32;58.50
31044;BME280;17710;52.520;13.352;2023-10-19T06:45:53;99723.69;;;12.50;57.13
31044;BME280;17710;52.520;13.352;2023-10-19T06:48:22;99723.84;;;12.33;57.45
31044;BME280;17710;52.520;13.352;2023-10-19T06:50:48;99735.97;;;12.21;58.15
31044;BME280;17710;52.520;13.352;2023-10-19T06:53:15;99725.63;;;12.32;58.31
31044;BME280;17710;52.520;13.352;2023-10-19T06:55:41;99716.59;;;12.51;57.59
31044;BME280;17710;52.520;13.352;2023-10-19T06:58:08;99710.00;;;12.72;56.82
31044;BME280;17710;52.520;13.352;2023-10-19T07:00:35;99698.44;;;12.59;56.57
31044;BME280;17710;52.520;13.352;2023-10-19T07:03:07;99702.47;;;12.50;57.25
31044;BME280;17710;52.520;13.352;2023-10-19T07:05:35;99701.47;;;12.53;57.14
31044;BME280;17710;52.520;13.352;2023-10-19T07:08:02;99701.94;;;12.59;57.03
31044;BME280;17710;52.520;13.352;2023-10-19T07:10:32;99699.09;;;12.62;56.77
31044;BME280;17710;52.520;13.352;2023-10-19T07:13:00;99690.69;;;12.70;56.88
31044;BME280;17710;52.520;13.352;2023-10-19T07:15:26;99689.75;;;12.71;56.87
31044;BME280;17710;52.520;13.352;2023-10-19T07:17:54;99689.38;;;12.77;57.26
31044;BME280;17710;52.520;13.352;2023-10-19T07:20:22;99692.56;;;12.68;57.13
31044;BME280;17710;52.520;13.352;2023-10-19T07:22:54;99699.03;;;12.78;56.67
31044;BME280;17710;52.520;13.352;2023-10-19T07:25:21;99692.66;;;12.81;56.43
31044;BME280;17710;52.520;13.352;2023-10-19T07:27:48;99694.00;;;12.88;56.50
31044;BME280;17710;52.520;13.352;2023-10-19T07:30:15;99699.59;;;12.97;56.03
31044;BME280;17710;52.520;13.352;2023-10-19T07:32:45;99688.06;;;12.98;55.91
31044;BME280;17710;52.520;13.352;2023-10-19T07:35:14;99699.59;;;13.11;55.36
31044;BME280;17710;52.520;13.352;2023-10-19T07:37:40;99691.09;;;12.92;55.62
31044;BME280;17710;52.520;13.352;2023-10-19T07:40:10;99710.59;;;12.91;56.00
31044;BME280;17710;52.520;13.352;2023-10-19T07:42:39;99709.91;;;13.02;55.66
31044;BME280;17710;52.520;13.352;2023-10-19T07:45:06;99726.69;;;13.02;55.49
31044;BME280;17710;52.520;13.352;2023-10-19T07:47:36;99715.59;;;12.96;56.30
31044;BME280;17710;52.520;13.352;2023-10-19T07:50:03;99719.66;;;12.87;56.48
31044;BME280;17710;52.520;13.352;2023-10-19T07:52:30;99715.50;;;12.97;56.62
31044;BME280;17710;52.520;13.352;2023-10-19T07:54:56;99717.03;;;13.30;55.21
31044;BME280;17710;52.520;13.352;2023-10-19T07:57:24;99706.50;;;12.86;55.79
31044;BME280;17710;52.520;13.352;2023-10-19T07:59:51;99693.81;;;13.05;55.62
31044;BME280;17710;52.520;13.352;2023-10-19T08:02:23;99699.03;;;12.92;55.61
31044;BME280;17710;52.520;13.352;2023-10-19T08:04:50;99706.03;;;13.07;54.99
31044;BME280;17710;52.520;13.352;2023-10-19T08:07:16;99692.03;;;13.05;55.54
31044;BME280;17710;52.520;13.352;2023-10-19T08:09:48;99699.03;;;12.92;55.88
31044;BME280;17710;52.520;13.352;2023-10-19T08:12:15;99706.13;;;12.92;55.55
31044;BME280;17710;52.520;13.352;2023-10-19T08:14:43;99700.94;;;13.04;55.71
31044;BME280;17710;52.520;13.352;2023-10-19T08:17:11;99708.78;;;13.06;55.49
31044;BME280;17710;52.520;13.352;2023-10-19T08:19:38;99698.53;;;13.42;54.14
31044;BME280;17710;52.520;13.352;2023-10-19T08:22:07;99683.41;;;13.16;54.32
31044;BME280;17710;52.520;13.352;2023-10-19T08:24:39;99685.38;;;13.27;54.66
31044;BME280;17710;52.520;13.352;2023-10-19T08:27:08;99672.72;;;13.32;54.02
31044;BME280;17710;52.520;13.352;2023-10-19T08:29:36;99674.63;;;13.15;54.29
31044;BME280;17710;52.520;13.352;2023-10-19T08:32:04;99670.22;;;13.29;54.45
31044;BME280;17710;52.520;13.352;2023-10-19T08:34:33;99669.06;;;13.33;54.49
31044;BME280;17710;52.520;13.352;2023-10-19T08:37:00;99673.38;;;13.21;55.01
31044;BME280;17710;52.520;13.352;2023-10-19T08:39:27;99662.66;;;13.08;55.53
31044;BME280;17710;52.520;13.352;2023-10-19T08:42:01;99644.13;;;13.49;54.72
31044;BME280;17710;52.520;13.352;2023-10-19T08:44:28;99636.47;;;13.45;54.80
31044;BME280;17710;52.520;13.352;2023-10-19T08:46:55;99642.16;;;13.92;53.67
31044;BME280;17710;52.520;13.352;2023-10-19T08:49:24;99646.03;;;13.74;53.53
31044;BME280;17710;52.520;13.352;2023-10-19T08:51:52;99648.28;;;13.80;52.77
31044;BME280;17710;52.520;13.352;2023-10-19T08:54:20;99651.66;;;13.70;53.75
31044;BME280;17710;52.520;13.352;2023-10-19T08:56:47;99650.47;;;13.47;54.05
31044;BME280;17710;52.520;13.352;2023-10-19T08:59:13;99651.84;;;13.67;53.58
31044;BME280;17710;52.520;13.352;2023-10-19T09:01:42;99653.94;;;13.62;53.85
31044;BME280;17710;52.520;13.352;2023-10-19T09:04:09;99656.34;;;13.79;53.57
31044;BME280;17710;52.520;13.352;2023-10-19T09:06:37;99658.97;;;14.06;52.44
31044;BME280;17710;52.520;13.352;2023-10-19T09:09:08;99654.34;;;13.82;52.82
31044;BME280;17710;52.520;13.352;2023-10-19T09:11:38;99654.59;;;14.05;52.71
31044;BME280;17710;52.520;13.352;2023-10-19T09:14:05;99654.69;;;13.90;52.96
31044;BME280;17710;52.520;13.352;2023-10-19T09:16:32;99662.91;;;14.13;51.87
31044;BME280;17710;52.520;13.352;2023-10-19T09:18:59;99654.13;;;13.85;53.09
31044;BME280;17710;52.520;13.352;2023-10-19T09:21:26;99641.75;;;13.98;52.79
31044;BME280;17710;52.520;13.352;2023-10-19T09:23:55;99635.09;;;14.18;52.43
31044;BME280;17710;52.520;13.352;2023-10-19T09:26:23;99623.59;;;14.18;52.54
31044;BME280;17710;52.520;13.352;2023-10-19T09:28:51;99629.16;;;13.75;53.95
31044;BME280;17710;52.520;13.352;2023-10-19T09:31:19;99629.03;;;14.16;53.33
31044;BME280;17710;52.520;13.352;2023-10-19T09:33:47;99616.91;;;14.12;53.35
31044;BME280;17710;52.520;13.352;2023-10-19T09:36:14;99623.94;;;14.26;52.71
31044;BME280;17710;52.520;13.352;2023-10-19T09:38:45;99620.59;;;14.49;52.22
31044;BME280;17710;52.520;13.352;2023-10-19T09:41:16;99620.38;;;14.40;52.62
31044;BME280;17710;52.520;13.352;2023-10-19T09:43:44;99618.09;;;14.21;53.35
31044;BME280;17710;52.520;13.352;2023-10-19T09:46:11;99629.63;;;13.94;54.10
31044;BME280;17710;52.520;13.352;2023-10-19T09:48:40;99641.28;;;13.92;54.72
31044;BME280;17710;52.520;13.352;2023-10-19T09:51:08;99632.31;;;14.07;54.06
31044;BME280;17710;52.520;13.352;2023-10-19T09:53:36;99624.91;;;13.85;54.88
31044;BME280;17710;52.520;13.352;2023-10-19T09:56:06;99620.19;;;13.90;55.17
31044;BME280;17710;52.520;13.352;2023-10-19T09:58:40;99624.31;;;13.94;55.33
31044;BME280;17710;52.520;13.352;2023-10-19T10:01:08;99621.50;;;14.23;54.68
31044;BME280;17710;52.520;13.352;2023-10-19T10:03:45;99611.19;;;14.18;54.75
31044;BME280;17710;52.520;13.352;2023-10-19T10:06:13;99621.06;;;14.16;54.65
31044;BME280;17710;52.520;13.352;2023-10-19T10:08:41;99607.56;;;14.07;55.26
31044;BME280;17710;52.520;13.352;2023-10-19T10:11:25;99616.75;;;13.88;55.69
31044;BME280;17710;52.520;13.352;2023-10-19T10:13:55;99621.69;;;13.68;56.51
31044;BME280;17710;52.520;13.352;2023-10-19T10:16:23;99613.66;;;13.82;56.35
31044;BME280;17710;52.520;13.352;2023-10-19T10:18:53;99616.84;;;13.87;56.50
31044;BME280;17710;52.520;13.352;2023-10-19T10:21:21;99617.84;;;13.98;56.20
31044;BME280;17710;52.520;13.352;2023-10-19T10:23:52;99619.41;;;13.88;56.68
31044;BME280;17710;52.520;13.352;2023-10-19T10:26:20;99605.59;;;13.83;56.95
31044;BME280;17710;52.520;13.352;2023-10-19T10:29:08;99587.56;;;14.01;57.28
31044;BME280;17710;52.520;13.352;2023-10-19T10:31:41;99588.84;;;13.95;57.58
31044;BME280;17710;52.520;13.352;2023-10-19T10:34:08;99580.84;;;13.83;59.22
31044;BME280;17710;52.520;13.352;2023-10-19T10:36:57;99574.06;;;13.91;60.48
31044;BME280;17710;52.520;13.352;2023-10-19T10:39:25;99574.72;;;13.95;62.81
31044;BME280;17710;52.520;13.352;2023-10-19T10:41:55;99576.88;;;13.63;63.36
31044;BME280;17710;52.520;13.352;2023-10-19T10:44:35;99572.00;;;13.70;64.48
31044;BME280;17710;52.520;13.352;2023-10-19T10:47:02;99572.88;;;13.70;65.04
31044;BME280;17710;52.520;13.352;2023-10-19T10:49:28;99567.16;;;13.76;64.94
31044;BME280;17710;52.520;13.352;2023-10-19T10:51:54;99569.44;;;13.68;65.67
31044;BME280;17710;52.520;13.352;2023-10-19T10:54:21;99564.47;;;13.64;65.98
31044;BME280;17710;52.520;13.352;2023-10-19T10:56:49;99581.19;;;13.91;64.73
31044;BME280;17710;52.520;13.352;2023-10-19T10:59:16;99584.41;;;14.21;63.58
31044;BME280;17710;52.520;13.352;2023-10-19T11:01:44;99578.34;;;14.07;64.25
31044;BME280;17710;52.520;13.352;2023-10-19T11:04:11;99563.91;;;14.11;64.78
31044;BME280;17710;52.520;13.352;2023-10-19T11:06:48;99566.25;;;14.28;62.92
31044;BME280;17710;52.520;13.352;2023-10-19T11:09:14;99565.47;;;14.01;64.23
31044;BME280;17710;52.520;13.352;2023-10-19T11:11:43;99566.06;;;13.79;65.43
31044;BME280;17710;52.520;13.352;2023-10-19T11:14:10;99566.47;;;13.73;65.45
31044;BME280;17710;52.520;13.352;2023-10-19T11:16:37;99563.13;;;13.83;64.68
31044;BME280;17710;52.520;13.352;2023-10-19T11:19:05;99569.91;;;13.87;64.52
31044;BME280;17710;52.520;13.352;2023-10-19T11:21:32;99562.28;;;13.83;65.13
31044;BME280;17710;52.520;13.352;2023-10-19T11:23:59;99558.66;;;13.84;64.81
31044;BME280;17710;52.520;13.352;2023-10-19T11:26:25;99557.06;;;13.81;64.65
31044;BME280;17710;52.520;13.352;2023-10-19T11:28:57;99559.41;;;13.98;64.99
31044;BME280;17710;52.520;13.352;2023-10-19T11:31:24;99551.25;;;14.02;64.19
31044;BME280;17710;52.520;13.352;2023-10-19T11:33:52;99549.22;;;13.92;64.09
31044;BME280;17710;52.520;13.352;2023-10-19T11:36:22;99546.13;;;13.98;63.65
31044;BME280;17710;52.520;13.352;2023-10-19T11:38:51;99542.41;;;13.88;64.47
31044;BME280;17710;52.520;13.352;2023-10-19T11:41:17;99546.13;;;13.98;64.15
31044;BME280;17710;52.520;13.352;2023-10-19T11:43:45;99538.69;;;13.78;64.82
31044;BME280;17710;52.520;13.352;2023-10-19T11:46:11;99529.03;;;14.03;64.52
31044;BME280;17710;52.520;13.352;2023-10-19T11:48:40;99528.63;;;14.09;64.31
31044;BME280;17710;52.520;13.352;2023-10-19T11:51:08;99531.03;;;13.86;64.45
31044;BME280;17710;52.520;13.352;2023-10-19T11:53:38;99524.97;;;13.72;65.32
31044;BME280;17710;52.520;13.352;2023-10-19T11:56:06;99533.38;;;13.78;65.10
31044;BME280;17710;52.520;13.352;2023-10-19T11:58:33;99531.88;;;13.87;64.59
31044;BME280;17710;52.520;13.352;2023-10-19T12:01:00;99528.47;;;13.85;64.99
31044;BME280;17710;52.520;13.352;2023-10-19T12:03:28;99527.25;;;13.90;64.95
31044;BME280;17710;52.520;13.352;2023-10-19T12:05:54;99523.38;;;13.82;65.71
31044;BME280;17710;52.520;13.352;2023-10-19T12:08:21;99518.00;;;13.96;65.19
31044;BME280;17710;52.520;13.352;2023-10-19T12:10:50;99525.94;;;13.83;65.61
31044;BME280;17710;52.520;13.352;2023-10-19T12:13:16;99524.59;;;13.90;65.31
31044;BME280;17710;52.520;13.352;2023-10-19T12:15:43;99521.94;;;14.03;64.96
31044;BME280;17710;52.520;13.352;2023-10-19T12:18:17;99521.28;;;14.00;64.99
31044;BME280;17710;52.520;13.352;2023-10-19T12:20:43;99521.59;;;14.08;65.14
31044;BME280;17710;52.520;13.352;2023-10-19T12:23:11;99520.31;;;14.01;64.93
31044;BME280;17710;52.520;13.352;2023-10-19T12:25:37;99521.41;;;14.11;65.55
31044;BME280;17710;52.520;13.352;2023-10-19T12:28:05;99500.88;;;14.00;65.71
31044;BME280;17710;52.520;13.352;2023-10-19T12:30:32;99500.97;;;13.98;65.79
31044;BME280;17710;52.520;13.352;2023-10-19T12:33:02;99505.16;;;14.03;66.40
31044;BME280;17710;52.520;13.352;2023-10-19T12:35:32;99499.59;;;13.80;66.80
31044;BME280;17710;52.520;13.352;2023-10-19T12:38:10;99497.91;;;14.05;66.43
31044;BME280;17710;52.520;13.352;2023-10-19T12:40:42;99497.59;;;13.96;66.99
31044;BME280;17710;52.520;13.352;2023-10-19T12:43:10;99492.06;;;13.87;67.03
31044;BME280;17710;52.520;13.352;2023-10-19T12:45:37;99505.13;;;13.77;67.69
31044;BME280;17710;52.520;13.352;2023-10-19T12:48:05;99506.59;;;13.69;68.14
31044;BME280;17710;52.520;13.352;2023-10-19T12:50:33;99504.06;;;13.92;67.70
31044;BME280;17710;52.520;13.352;2023-10-19T12:53:00;99505.66;;;14.08;67.18